createdAt,value
2022-07-29T00:01:55.061Z,17.70
2022-07-29T00:04:24.780Z,17.60
2022-07-29T00:07:04.993Z,17.54
2022-07-29T00:09:50.670Z,17.50
2022-07-29T00:12:26.278Z,17.46
2022-07-29T00:14:58.314Z,17.49
2022-07-29T00:17:28.205Z,17.44
2022-07-29T00:19:57.757Z,17.45
2022-07-29T00:22:27.222Z,17.41
2022-07-29T00:24:58.296Z,17.41
2022-07-29T00:27:27.882Z,17.42
2022-07-29T00:29:57.456Z,17.40
2022-07-29T00:32:27.030Z,17.39
2022-07-29T00:35:14.256Z,17.35
2022-07-29T00:37:43.891Z,17.31
2022-07-29T00:40:15.092Z,17.28
2022-07-29T00:42:45.719Z,17.26
2022-07-29T00:45:17.917Z,17.27
2022-07-29T00:47:47.591Z,17.32
2022-07-29T00:50:17.242Z,17.31
2022-07-29T00:52:47.010Z,17.32
2022-07-29T00:55:19.129Z,17.29
2022-07-29T00:57:49.160Z,17.31
2022-07-29T01:00:23.440Z,17.26
2022-07-29T01:02:53.643Z,17.23
2022-07-29T01:05:50.638Z,17.29
2022-07-29T01:08:19.776Z,17.29
2022-07-29T01:10:51.417Z,17.28
2022-07-29T01:13:21.462Z,17.29
2022-07-29T01:16:09.462Z,17.32
2022-07-29T01:18:47.159Z,17.37
2022-07-29T01:21:45.501Z,17.41
2022-07-29T01:24:37.981Z,17.42
2022-07-29T01:27:34.652Z,17.45
2022-07-29T01:30:07.916Z,17.46
2022-07-29T01:32:41.562Z,17.46
2022-07-29T01:35:19.407Z,17.45
2022-07-29T01:37:58.007Z,17.47
2022-07-29T01:40:37.843Z,17.48
2022-07-29T01:43:16.933Z,17.48
2022-07-29T01:45:55.286Z,17.51
2022-07-29T01:48:34.054Z,17.51
2022-07-29T01:51:17.126Z,17.53
2022-07-29T01:53:57.366Z,17.54
2022-07-29T01:56:30.693Z,17.56
2022-07-29T01:59:01.382Z,17.56
2022-07-29T02:01:33.723Z,17.56
2022-07-29T02:04:07.602Z,17.54
2022-07-29T02:06:39.712Z,17.52
2022-07-29T02:09:09.827Z,17.49
2022-07-29T02:11:40.282Z,17.48
2022-07-29T02:14:13.334Z,17.46
2022-07-29T02:16:46.325Z,17.42
2022-07-29T02:19:17.429Z,17.39
2022-07-29T02:21:46.953Z,17.33
2022-07-29T02:24:18.935Z,17.26
2022-07-29T02:26:50.069Z,17.25
2022-07-29T02:29:21.460Z,17.22
2022-07-29T02:31:53.039Z,17.20
2022-07-29T02:34:23.463Z,17.16
2022-07-29T02:36:53.680Z,17.11
2022-07-29T02:39:23.890Z,17.06
2022-07-29T02:41:57.790Z,17.02
2022-07-29T02:44:31.361Z,16.96
2022-07-29T02:47:13.503Z,16.88
2022-07-29T02:49:52.185Z,16.83
2022-07-29T02:52:26.676Z,16.77
2022-07-29T02:54:59.327Z,16.71
2022-07-29T02:57:36.272Z,16.66
2022-07-29T03:00:26.234Z,16.59
2022-07-29T03:03:00.551Z,16.49
2022-07-29T03:05:30.155Z,16.40
2022-07-29T03:08:02.957Z,16.32
2022-07-29T03:10:32.741Z,16.26
2022-07-29T03:13:02.361Z,16.19
2022-07-29T03:15:31.786Z,16.13
2022-07-29T03:18:03.041Z,16.08
2022-07-29T03:20:32.439Z,15.99
2022-07-29T03:23:01.888Z,15.89
2022-07-29T03:25:31.122Z,15.77
2022-07-29T03:28:01.137Z,15.69
2022-07-29T03:30:31.663Z,15.61
2022-07-29T03:33:02.990Z,15.56
2022-07-29T03:35:43.640Z,15.50
2022-07-29T03:38:13.222Z,15.45
2022-07-29T03:40:52.028Z,15.44
2022-07-29T03:43:22.811Z,15.46
2022-07-29T03:45:56.440Z,15.45
2022-07-29T03:48:30.242Z,15.45
2022-07-29T03:50:59.570Z,15.45
2022-07-29T03:53:28.880Z,15.47
2022-07-29T03:56:04.414Z,15.44
2022-07-29T03:58:35.085Z,15.46
2022-07-29T04:01:05.032Z,15.43
2022-07-29T04:03:36.687Z,15.46
2022-07-29T04:06:09.127Z,15.49
2022-07-29T04:08:38.719Z,15.55
2022-07-29T04:11:08.544Z,15.55
2022-07-29T04:13:38.379Z,15.58
2022-07-29T04:16:11.401Z,15.61
2022-07-29T04:18:42.163Z,15.67
2022-07-29T04:21:11.852Z,15.73
2022-07-29T04:23:53.154Z,15.79
2022-07-29T04:26:23.899Z,15.85
2022-07-29T04:28:53.403Z,15.91
2022-07-29T04:31:25.852Z,15.94
2022-07-29T04:33:57.031Z,15.97
2022-07-29T04:36:29.303Z,16.02
2022-07-29T04:39:29.650Z,16.08
2022-07-29T04:42:00.245Z,16.11
2022-07-29T04:44:30.947Z,16.12
2022-07-29T04:47:10.766Z,16.13
2022-07-29T04:49:42.434Z,16.13
2022-07-29T04:52:11.946Z,16.15
2022-07-29T04:54:41.541Z,16.15
2022-07-29T04:57:11.042Z,16.15
2022-07-29T04:59:40.535Z,16.15
2022-07-29T05:02:10.013Z,16.15
2022-07-29T05:04:40.910Z,16.18
2022-07-29T05:07:10.607Z,16.22
2022-07-29T05:09:40.173Z,16.27
2022-07-29T05:12:10.738Z,16.34
2022-07-29T05:14:40.333Z,16.39
2022-07-29T05:17:09.993Z,16.46
2022-07-29T05:19:39.749Z,16.52
2022-07-29T05:22:10.517Z,16.58
2022-07-29T05:24:39.745Z,16.63
2022-07-29T05:27:09.011Z,16.69
2022-07-29T05:29:44.438Z,16.76
2022-07-29T05:32:14.960Z,16.85
2022-07-29T05:34:50.306Z,16.95
2022-07-29T05:37:22.998Z,17.02
2022-07-29T05:39:56.749Z,17.11
2022-07-29T05:42:26.640Z,17.18
2022-07-29T05:44:55.912Z,17.28
2022-07-29T05:47:26.042Z,17.37
2022-07-29T05:49:55.332Z,17.43
2022-07-29T05:52:26.198Z,17.49
2022-07-29T05:54:55.413Z,17.54
2022-07-29T05:57:26.363Z,17.59
2022-07-29T05:59:55.549Z,17.64
2022-07-29T06:02:27.378Z,17.72
2022-07-29T06:04:56.620Z,17.84
2022-07-29T06:07:27.281Z,17.89
2022-07-29T06:09:56.495Z,17.96
2022-07-29T06:12:25.699Z,18.05
2022-07-29T06:14:54.903Z,18.12
2022-07-29T06:17:24.074Z,18.19
2022-07-29T06:19:53.487Z,18.29
2022-07-29T06:22:22.685Z,18.37
2022-07-29T06:24:53.441Z,18.43
2022-07-29T06:27:22.894Z,18.52
2022-07-29T06:29:52.175Z,18.59
2022-07-29T06:32:22.885Z,18.67
2022-07-29T06:35:11.853Z,18.76
2022-07-29T06:37:45.921Z,18.86
2022-07-29T06:40:37.518Z,18.97
2022-07-29T06:43:07.050Z,19.06
2022-07-29T06:45:36.901Z,19.17
2022-07-29T06:48:07.175Z,19.25
2022-07-29T06:50:36.365Z,19.33
2022-07-29T06:53:06.238Z,19.41
2022-07-29T06:55:37.898Z,19.51
2022-07-29T06:58:07.971Z,19.62
2022-07-29T07:00:37.448Z,19.70
2022-07-29T07:03:06.648Z,19.78
2022-07-29T07:05:36.165Z,19.85
2022-07-29T07:08:06.413Z,19.85
2022-07-29T07:10:37.171Z,19.89
2022-07-29T07:13:07.256Z,20.02
2022-07-29T07:15:40.142Z,20.12
2022-07-29T07:18:10.030Z,20.21
2022-07-29T07:20:39.678Z,20.33
2022-07-29T07:23:09.220Z,20.47
2022-07-29T07:25:39.860Z,20.59
2022-07-29T07:28:09.105Z,20.74
2022-07-29T07:30:38.409Z,20.87
2022-07-29T07:33:08.026Z,20.99
2022-07-29T07:35:38.066Z,21.14
2022-07-29T07:40:37.265Z,21.36
2022-07-29T07:43:08.126Z,21.47
2022-07-29T07:45:38.262Z,21.59
2022-07-29T07:48:07.943Z,21.69
2022-07-29T07:50:37.185Z,21.79
2022-07-29T07:53:06.476Z,21.93
2022-07-29T07:56:07.703Z,22.14
2022-07-29T07:58:26.378Z,22.27
2022-07-29T08:00:55.728Z,22.48
2022-07-29T08:03:25.112Z,22.63
2022-07-29T08:05:55.267Z,22.76
2022-07-29T08:08:24.716Z,22.84
2022-07-29T08:10:54.026Z,22.95
2022-07-29T08:13:28.160Z,23.04
2022-07-29T08:16:01.496Z,23.13
2022-07-29T08:18:32.312Z,23.21
2022-07-29T08:21:01.495Z,23.27
2022-07-29T08:23:47.803Z,23.36
2022-07-29T08:26:18.856Z,23.44
2022-07-29T08:28:51.196Z,23.41
2022-07-29T08:31:22.600Z,23.36
2022-07-29T08:33:51.912Z,23.38
2022-07-29T08:36:22.253Z,23.38
2022-07-29T08:38:51.954Z,23.45
2022-07-29T08:41:22.144Z,23.54
2022-07-29T08:43:53.936Z,23.61
2022-07-29T08:46:24.235Z,23.63
2022-07-29T08:48:53.688Z,23.66
2022-07-29T08:51:23.706Z,23.69
2022-07-29T08:53:52.985Z,23.76
2022-07-29T08:56:23.302Z,23.74
2022-07-29T08:58:53.983Z,23.73
2022-07-29T09:01:35.618Z,23.80
2022-07-29T09:04:08.465Z,23.74
2022-07-29T09:06:42.724Z,23.75
2022-07-29T09:09:12.857Z,23.71
2022-07-29T09:12:09.213Z,23.81
2022-07-29T09:14:39.847Z,23.78
2022-07-29T09:17:10.072Z,23.80
2022-07-29T09:19:44.793Z,23.83
2022-07-29T09:22:31.094Z,23.86
2022-07-29T09:25:01.347Z,23.92
2022-07-29T09:27:31.073Z,24.12
2022-07-29T09:30:05.110Z,24.18
2022-07-29T09:32:35.730Z,24.23
2022-07-29T09:35:22.602Z,24.29
2022-07-29T09:37:52.265Z,24.16
2022-07-29T09:40:23.587Z,23.92
2022-07-29T09:42:56.525Z,23.92
2022-07-29T09:45:32.090Z,24.06
2022-07-29T09:48:04.243Z,24.18
2022-07-29T09:50:41.264Z,24.28
2022-07-29T09:53:11.386Z,24.42
2022-07-29T09:55:51.852Z,24.40
2022-07-29T09:58:23.727Z,24.46
2022-07-29T10:00:55.848Z,24.45
2022-07-29T10:03:25.761Z,24.41
2022-07-29T10:06:10.042Z,24.63
2022-07-29T10:08:39.928Z,24.87
2022-07-29T10:11:14.689Z,25.09
2022-07-29T10:13:46.278Z,25.31
2022-07-29T10:16:18.860Z,25.41
2022-07-29T10:18:48.698Z,25.48
2022-07-29T10:21:22.468Z,25.47
2022-07-29T10:24:06.708Z,25.41
2022-07-29T10:26:44.631Z,25.47
2022-07-29T10:29:14.076Z,25.51
2022-07-29T10:31:57.072Z,25.66
2022-07-29T10:34:38.571Z,25.66
2022-07-29T10:37:19.382Z,25.41
2022-07-29T10:39:59.363Z,25.26
2022-07-29T10:42:34.152Z,25.32
2022-07-29T10:45:06.329Z,25.33
2022-07-29T10:47:37.300Z,25.46
2022-07-29T10:50:12.726Z,25.85
2022-07-29T10:53:00.793Z,26.17
2022-07-29T10:55:35.885Z,26.15
2022-07-29T10:58:20.512Z,26.09
2022-07-29T11:00:52.468Z,26.24
2022-07-29T11:03:50.596Z,26.17
2022-07-29T11:06:26.871Z,26.15
2022-07-29T11:09:20.130Z,26.40
2022-07-29T11:11:51.537Z,26.43
2022-07-29T11:15:01.119Z,26.51
2022-07-29T11:17:37.555Z,26.42
2022-07-29T11:20:42.435Z,26.58
2022-07-29T11:23:24.460Z,26.72
2022-07-29T11:26:21.141Z,26.87
2022-07-29T11:29:03.245Z,26.78
2022-07-29T11:31:42.337Z,26.72
2022-07-29T11:34:27.997Z,26.63
2022-07-29T11:37:33.184Z,26.70
2022-07-29T11:40:20.226Z,26.79
2022-07-29T11:42:52.637Z,27.05
2022-07-29T11:45:42.916Z,27.36
2022-07-29T11:48:29.821Z,27.38
2022-07-29T11:51:12.158Z,27.31
2022-07-29T11:53:49.097Z,27.29
2022-07-29T11:56:25.694Z,27.17
2022-07-29T11:59:06.224Z,27.18
2022-07-29T12:01:38.118Z,27.16
2022-07-29T12:04:08.001Z,27.28
2022-07-29T12:06:37.476Z,27.51
2022-07-29T12:09:14.411Z,27.62
2022-07-29T12:11:45.053Z,27.78
2022-07-29T12:14:30.084Z,28.05
2022-07-29T12:17:00.738Z,28.30
2022-07-29T12:19:30.119Z,28.55
2022-07-29T12:22:02.314Z,28.34
2022-07-29T12:24:46.917Z,27.94
2022-07-29T12:27:28.566Z,27.56
2022-07-29T12:29:59.003Z,27.29
2022-07-29T12:32:34.944Z,27.10
2022-07-29T12:35:06.530Z,26.83
2022-07-29T12:37:41.018Z,26.65
2022-07-29T12:40:15.829Z,26.43
2022-07-29T12:43:11.228Z,26.36
2022-07-29T12:45:40.909Z,26.16
2022-07-29T12:48:12.017Z,25.90
2022-07-29T12:51:00.602Z,25.76
2022-07-29T12:53:31.765Z,25.58
2022-07-29T12:56:07.980Z,25.47
2022-07-29T12:58:42.514Z,25.39
2022-07-29T13:01:17.055Z,25.18
2022-07-29T13:03:56.868Z,25.16
2022-07-29T13:06:36.367Z,24.98
2022-07-29T13:09:10.507Z,24.79
2022-07-29T13:11:48.157Z,24.75
2022-07-29T13:14:34.077Z,24.61
2022-07-29T13:17:08.718Z,24.54
2022-07-29T13:19:42.891Z,24.48
2022-07-29T13:22:14.313Z,24.38
2022-07-29T13:24:52.309Z,24.35
2022-07-29T13:27:26.138Z,24.28
2022-07-29T13:29:57.568Z,24.23
2022-07-29T13:32:35.525Z,24.18
2022-07-29T13:35:08.626Z,24.12
2022-07-29T13:37:40.233Z,24.08
2022-07-29T13:40:12.437Z,24.05
2022-07-29T13:42:43.655Z,23.99
2022-07-29T13:45:13.717Z,23.93
2022-07-29T13:47:49.200Z,23.85
2022-07-29T13:50:19.842Z,23.78
2022-07-29T13:52:51.562Z,23.72
2022-07-29T13:55:23.710Z,23.68
2022-07-29T13:57:56.263Z,23.63
2022-07-29T14:00:27.184Z,23.58
2022-07-29T14:02:58.406Z,23.53
2022-07-29T14:05:28.074Z,23.55
2022-07-29T14:07:57.376Z,23.57
2022-07-29T14:10:28.731Z,23.55
2022-07-29T14:12:59.440Z,23.50
2022-07-29T14:15:28.681Z,23.49
2022-07-29T14:17:58.089Z,23.43
2022-07-29T14:20:27.444Z,23.39
2022-07-29T14:22:57.225Z,23.32
2022-07-29T14:25:26.641Z,23.34
2022-07-29T14:27:55.977Z,23.38
2022-07-29T14:30:29.216Z,23.44
2022-07-29T14:32:58.409Z,23.58
2022-07-29T14:35:27.789Z,23.72
2022-07-29T14:37:57.072Z,23.74
2022-07-29T14:40:26.612Z,23.81
2022-07-29T14:42:55.841Z,23.81
2022-07-29T14:45:25.170Z,23.79
2022-07-29T14:47:57.294Z,23.77
2022-07-29T14:50:31.360Z,23.68
2022-07-29T14:53:01.694Z,23.65
2022-07-29T14:55:30.940Z,23.57
2022-07-29T14:58:08.730Z,23.45
2022-07-29T15:00:40.508Z,23.41
2022-07-29T15:03:11.556Z,23.36
2022-07-29T15:05:41.080Z,23.45
2022-07-29T15:08:10.298Z,23.67
2022-07-29T15:10:39.476Z,23.79
2022-07-29T15:13:08.973Z,24.05
2022-07-29T15:15:38.257Z,24.38
2022-07-29T15:18:08.116Z,24.54
2022-07-29T15:20:39.104Z,24.68
2022-07-29T15:23:10.385Z,24.79
2022-07-29T15:25:42.760Z,24.89
2022-07-29T15:28:12.208Z,24.93
2022-07-29T15:30:42.801Z,24.98
2022-07-29T15:33:12.212Z,25.10
2022-07-29T15:35:42.869Z,25.01
2022-07-29T15:38:12.172Z,25.04
2022-07-29T15:40:42.139Z,25.11
2022-07-29T15:43:11.594Z,25.15
2022-07-29T15:45:42.529Z,25.11
2022-07-29T15:48:14.757Z,25.08
2022-07-29T15:50:46.958Z,24.94
2022-07-29T15:53:16.599Z,24.90
2022-07-29T15:55:46.936Z,24.79
2022-07-29T15:58:16.265Z,24.62
2022-07-29T16:00:45.644Z,24.58
2022-07-29T16:03:14.952Z,24.45
2022-07-29T16:05:46.020Z,24.38
2022-07-29T16:08:15.295Z,24.28
2022-07-29T16:10:44.597Z,24.17
2022-07-29T16:13:17.933Z,24.04
2022-07-29T16:16:02.255Z,23.91
2022-07-29T16:18:32.283Z,23.78
2022-07-29T16:21:02.985Z,23.71
2022-07-29T16:23:32.337Z,23.59
2022-07-29T16:26:01.801Z,23.53
2022-07-29T16:28:31.579Z,23.40
2022-07-29T16:31:01.504Z,23.22
2022-07-29T16:33:53.620Z,23.14
2022-07-29T16:36:22.169Z,23.08
2022-07-29T16:38:51.817Z,22.91
2022-07-29T16:41:21.170Z,22.88
2022-07-29T16:43:50.415Z,22.79
2022-07-29T16:46:20.773Z,22.71
2022-07-29T16:48:50.273Z,22.68
2022-07-29T16:51:20.894Z,22.57
2022-07-29T16:53:50.494Z,22.56
2022-07-29T16:56:19.895Z,22.51
2022-07-29T16:58:49.195Z,22.46
2022-07-29T17:01:19.862Z,22.27
2022-07-29T17:04:07.711Z,21.88
2022-07-29T17:06:40.758Z,21.31
2022-07-29T17:09:14.961Z,20.41
2022-07-29T17:11:51.642Z,19.85
2022-07-29T17:14:25.804Z,19.25
2022-07-29T17:17:00.514Z,18.59
2022-07-29T17:19:32.859Z,18.28
2022-07-29T17:22:20.237Z,18.08
2022-07-29T17:24:49.915Z,17.82
2022-07-29T17:27:19.673Z,17.74
2022-07-29T17:29:49.165Z,17.60
2022-07-29T17:32:18.808Z,17.55
2022-07-29T17:34:48.054Z,17.48
2022-07-29T17:37:18.613Z,17.38
2022-07-29T17:39:48.270Z,17.31
2022-07-29T17:42:17.531Z,17.22
2022-07-29T17:44:46.943Z,17.17
2022-07-29T17:47:16.935Z,17.18
2022-07-29T17:49:47.232Z,17.07
2022-07-29T17:52:18.370Z,17.01
2022-07-29T17:54:49.195Z,16.96
2022-07-29T17:57:18.491Z,16.92
2022-07-29T17:59:47.806Z,16.92
2022-07-29T18:02:21.652Z,16.81
2022-07-29T18:04:51.003Z,16.78
2022-07-29T18:07:21.605Z,16.69
2022-07-29T18:09:50.945Z,16.63
2022-07-29T18:12:20.195Z,16.62
2022-07-29T18:14:49.602Z,16.54
2022-07-29T18:17:19.104Z,16.53
2022-07-29T18:19:48.757Z,16.50
2022-07-29T18:22:18.057Z,16.50
2022-07-29T18:24:48.950Z,16.48
2022-07-29T18:27:18.406Z,16.46
2022-07-29T18:29:51.170Z,16.46
2022-07-29T18:32:28.810Z,16.44
2022-07-29T18:35:02.475Z,16.44
2022-07-29T18:38:01.728Z,16.41
2022-07-29T18:40:23.900Z,16.38
2022-07-29T18:42:53.520Z,16.36
2022-07-29T18:45:22.987Z,16.23
2022-07-29T18:47:58.354Z,16.28
2022-07-29T18:50:29.551Z,16.25
2022-07-29T18:53:01.188Z,16.20
2022-07-29T18:55:32.135Z,16.14
2022-07-29T18:58:01.798Z,16.13
2022-07-29T19:00:31.504Z,16.14
2022-07-29T19:03:03.178Z,16.06
2022-07-29T19:05:33.364Z,16.05
2022-07-29T19:08:02.859Z,16.09
2022-07-29T19:10:33.868Z,16.08
2022-07-29T19:13:03.376Z,16.08
2022-07-29T19:15:32.877Z,16.11
2022-07-29T19:18:02.366Z,16.11
2022-07-29T19:20:31.923Z,16.09
2022-07-29T19:23:01.451Z,16.07
2022-07-29T19:25:31.233Z,16.10
2022-07-29T19:28:06.843Z,16.12
2022-07-29T19:30:36.521Z,16.10
2022-07-29T19:33:05.898Z,16.10
2022-07-29T19:35:35.187Z,16.15
2022-07-29T19:38:04.732Z,16.17
2022-07-29T19:40:34.023Z,16.18
2022-07-29T19:43:03.593Z,16.19
2022-07-29T19:45:54.132Z,16.21
2022-07-29T19:48:23.388Z,16.23
2022-07-29T19:50:53.056Z,16.19
2022-07-29T19:53:22.257Z,16.27
2022-07-29T19:55:52.007Z,16.27
2022-07-29T19:58:22.475Z,16.27
2022-07-29T20:00:52.069Z,16.30
2022-07-29T20:03:23.017Z,16.29
2022-07-29T20:05:52.896Z,16.30
2022-07-29T20:08:22.416Z,16.25
2022-07-29T20:10:51.749Z,16.25
2022-07-29T20:13:20.960Z,16.29
2022-07-29T20:15:50.320Z,16.28
2022-07-29T20:18:19.925Z,16.29
2022-07-29T20:20:50.657Z,16.30
2022-07-29T20:23:22.163Z,16.35
2022-07-29T20:25:51.789Z,16.32
2022-07-29T20:28:21.342Z,16.32
2022-07-29T20:30:51.085Z,16.33
2022-07-29T20:33:20.732Z,16.33
2022-07-29T20:35:51.700Z,16.32
2022-07-29T20:38:21.352Z,16.32
2022-07-29T20:40:53.246Z,16.28
2022-07-29T20:43:22.842Z,16.32
2022-07-29T20:45:52.588Z,16.37
2022-07-29T20:48:22.844Z,16.38
2022-07-29T20:50:54.940Z,16.37
2022-07-29T20:53:24.611Z,16.37
2022-07-29T20:55:54.932Z,16.36
2022-07-29T20:58:24.525Z,16.31
2022-07-29T21:00:54.292Z,16.30
2022-07-29T21:03:23.881Z,16.29
2022-07-29T21:05:54.747Z,16.29
2022-07-29T21:08:24.467Z,16.28
2022-07-29T21:10:54.177Z,16.27
2022-07-29T21:13:25.442Z,16.28
2022-07-29T21:15:59.061Z,16.27
2022-07-29T21:18:30.593Z,16.34
2022-07-29T21:21:05.748Z,16.30
2022-07-29T21:23:35.921Z,16.30
2022-07-29T21:26:07.766Z,16.29
2022-07-29T21:28:40.075Z,16.33
2022-07-29T21:31:12.469Z,16.29
2022-07-29T21:33:44.859Z,16.27
2022-07-29T21:36:46.785Z,16.32
2022-07-29T21:39:07.034Z,16.33
2022-07-29T21:41:36.571Z,16.27
2022-07-29T21:44:06.178Z,16.29
2022-07-29T21:46:36.454Z,16.30
2022-07-29T21:49:06.117Z,16.27
2022-07-29T21:51:36.871Z,16.25
2022-07-29T21:54:06.609Z,16.25
2022-07-29T21:56:38.057Z,16.18
2022-07-29T21:59:09.614Z,16.18
2022-07-29T22:01:40.117Z,16.18
2022-07-29T22:04:09.751Z,16.16
2022-07-29T22:06:40.733Z,16.13
2022-07-29T22:09:10.352Z,16.13
2022-07-29T22:11:39.920Z,16.14
2022-07-29T22:14:09.502Z,16.11
2022-07-29T22:16:39.115Z,16.12
2022-07-29T22:19:08.985Z,16.12
2022-07-29T22:21:40.204Z,16.15
2022-07-29T22:24:11.194Z,16.14
2022-07-29T22:26:41.586Z,16.13
2022-07-29T22:29:11.614Z,16.17
2022-07-29T22:31:41.157Z,16.14
2022-07-29T22:34:13.150Z,16.13
2022-07-29T22:36:44.018Z,16.12
2022-07-29T22:39:15.685Z,16.13
2022-07-29T22:41:45.761Z,16.17
2022-07-29T22:44:15.355Z,16.16
2022-07-29T22:46:44.961Z,16.11
2022-07-29T22:49:14.561Z,16.11
2022-07-29T22:51:45.426Z,16.11
2022-07-29T22:54:15.045Z,16.16
2022-07-29T22:56:44.616Z,16.17
2022-07-29T22:59:14.112Z,16.20
2022-07-29T23:01:43.979Z,16.16
2022-07-29T23:04:13.890Z,16.15
2022-07-29T23:06:44.805Z,16.16
2022-07-29T23:09:14.339Z,16.21
2022-07-29T23:11:44.057Z,16.19
2022-07-29T23:14:13.706Z,16.18
2022-07-29T23:16:43.320Z,16.15
2022-07-29T23:19:13.069Z,16.15
2022-07-29T23:21:44.093Z,16.15
2022-07-29T23:24:13.678Z,16.15
2022-07-29T23:26:43.368Z,16.17
2022-07-29T23:29:13.183Z,16.22
2022-07-29T23:31:44.284Z,16.22
2022-07-29T23:34:17.790Z,16.22
2022-07-29T23:36:48.674Z,16.24
2022-07-29T23:39:18.403Z,16.26
2022-07-29T23:41:47.960Z,16.25
2022-07-29T23:44:17.456Z,16.24
2022-07-29T23:46:47.048Z,16.23
2022-07-29T23:49:16.849Z,16.27
2022-07-29T23:51:47.806Z,16.27
2022-07-29T23:54:17.287Z,16.29
2022-07-29T23:56:46.900Z,16.25
2022-07-29T23:59:16.522Z,16.22
